Time;durP1;ratioP1;P1;durP2;ratioP2;P2;SDS_P1;SDS_P2;PMS_P1;PMS_P2;Temp;Humidity;BMP_temperature;BMP_pressure;BME280_temperature;BME280_humidity;BME280_pressure;Samples;Min_cycle;Max_cycle;Signal;HPM_P1;HPM_P2
2022/09/01 00:01:38;;;;;;;1.15;0.90;;;;;;;15.17;61.07;99545.66;1632414;87;21158;-78
2022/09/01 00:04:04;;;;;;;1.17;0.80;;;;;;;15.19;61.54;99549.56;1632491;87;21206;-78
2022/09/01 00:06:32;;;;;;;2.58;0.90;;;;;;;15.17;61.78;99545.66;1632110;87;21054;-78
2022/09/01 00:09:04;;;;;;;0.62;0.62;;;;;;;15.17;62.17;99543.01;1632166;87;21090;-78
2022/09/01 00:11:31;;;;;;;0.90;0.80;;;;;;;15.17;62.19;99545.66;1632432;87;21169;-78
2022/09/01 00:14:00;;;;;;;0.75;0.75;;;;;;;15.17;62.40;99545.66;1632190;87;21161;-78
2022/09/01 00:16:29;;;;;;;3.60;0.80;;;;;;;15.15;62.12;99543.56;1632328;87;21798;-78
2022/09/01 00:18:56;;;;;;;1.72;0.95;;;;;;;15.14;62.36;99540.99;1632276;87;21110;-78
2022/09/01 00:21:33;;;;;;;3.45;0.88;;;;;;;15.15;62.29;99550.19;1632184;87;21627;-78
2022/09/01 00:24:00;;;;;;;2.12;0.90;;;;;;;15.15;62.90;99548.02;1632280;87;21066;-78
2022/09/01 00:26:27;;;;;;;6.80;1.95;;;;;;;15.13;62.96;99549.42;1632456;87;21672;-78
2022/09/01 00:28:54;;;;;;;2.10;0.90;;;;;;;15.13;63.02;99545.45;1632353;87;21229;-78
2022/09/01 00:31:21;;;;;;;3.05;0.90;;;;;;;15.13;62.79;99539.27;1632350;87;21129;-78
2022/09/01 00:33:47;;;;;;;5.95;1.07;;;;;;;15.12;62.98;99545.05;1632096;87;21169;-78
2022/09/01 00:36:15;;;;;;;4.83;1.27;;;;;;;15.10;63.07;99542.95;1632047;87;21197;-78
2022/09/01 00:38:42;;;;;;;1.32;0.90;;;;;;;15.09;63.55;99546.53;1632461;87;21177;-78
2022/09/01 00:41:09;;;;;;;0.90;0.90;;;;;;;15.07;63.90;99544.44;1632361;87;21546;-79
2022/09/01 00:43:47;;;;;;;4.97;0.98;;;;;;;15.05;63.79;99551.62;1632214;87;21182;-78
2022/09/01 00:46:26;;;;;;;0.90;0.90;;;;;;;15.01;64.08;99540.78;1631700;87;21066;-78
2022/09/01 00:49:05;;;;;;;4.00;1.07;;;;;;;15.00;63.20;99549.68;1632355;87;21150;-77
2022/09/01 00:51:32;;;;;;;2.00;1.00;;;;;;;15.00;63.31;99550.53;1631177;87;21165;-78
2022/09/01 00:53:59;;;;;;;3.80;1.10;;;;;;;15.01;63.20;99551.37;1632452;87;21655;-78
2022/09/01 00:56:26;;;;;;;8.63;1.00;;;;;;;15.02;63.00;99554.42;1632306;87;21181;-78
2022/09/01 00:58:53;;;;;;;2.42;1.00;;;;;;;15.01;62.76;99551.37;1632530;87;21114;-78
2022/09/01 01:01:19;;;;;;;1.57;1.00;;;;;;;15.00;62.52;99552.33;1632080;87;21439;-78
2022/09/01 01:03:46;;;;;;;2.95;0.98;;;;;;;14.99;61.98;99542.66;1632226;87;21181;-78
2022/09/01 01:06:15;;;;;;;1.12;0.90;;;;;;;14.99;61.99;99547.95;1632193;87;21162;-78
2022/09/01 01:08:56;;;;;;;2.47;1.12;;;;;;;14.97;61.62;99543.21;1632298;87;21158;-78
2022/09/01 01:11:16;;;;;;;2.70;0.90;;;;;;;14.95;61.76;99551.72;1630268;87;21161;-77
2022/09/01 01:13:57;;;;;;;1.35;0.88;;;;;;;14.89;61.76;99547.57;1629710;88;21135;-78
2022/09/01 01:16:25;;;;;;;1.45;0.80;;;;;;;14.85;61.88;99542.06;1629731;88;21095;-78
2022/09/01 01:18:52;;;;;;;2.98;0.78;;;;;;;14.82;61.04;99543.06;1629798;88;21244;-78
2022/09/01 01:24:30;;;;;;;1.00;0.90;;;;;;;14.71;61.24;99548.08;1629755;88;21078;-78
2022/09/01 01:26:58;;;;;;;1.10;1.00;;;;;;;14.66;61.29;99546.98;1629518;87;21094;-78
2022/09/01 01:29:32;;;;;;;3.15;1.00;;;;;;;14.60;61.46;99552.58;1629814;88;21149;-78
2022/09/01 01:31:59;;;;;;;4.08;0.95;;;;;;;14.56;61.57;99548.35;1615784;88;22049;-76
2022/09/01 01:34:26;;;;;;;0.95;0.90;;;;;;;14.47;61.60;99547.03;1629633;87;21523;-78
2022/09/01 01:37:00;;;;;;;2.05;0.78;;;;;;;14.39;61.47;99543.91;1629801;87;21626;-77
2022/09/01 01:39:26;;;;;;;1.47;0.80;;;;;;;14.29;61.54;99545.30;1628781;88;21089;-78
2022/09/01 01:41:54;;;;;;;1.52;0.90;;;;;;;14.20;61.78;99546.58;1629801;88;21133;-78
2022/09/01 01:44:26;;;;;;;1.62;0.95;;;;;;;14.10;61.71;99538.27;1630043;87;21518;-78
2022/09/01 01:46:53;;;;;;;1.77;0.93;;;;;;;14.01;61.62;99541.34;1629682;87;21032;-77
2022/09/01 01:49:23;;;;;;;3.30;1.00;;;;;;;13.93;61.90;99538.20;1629620;87;21581;-78
2022/09/01 01:51:55;;;;;;;3.60;1.00;;;;;;;13.84;61.85;99538.66;1629654;88;21080;-78
2022/09/01 01:54:23;;;;;;;1.98;0.70;;;;;;;13.76;61.90;99536.37;1629602;87;21158;-77
2022/09/01 01:56:49;;;;;;;3.25;1.07;;;;;;;13.66;61.86;99535.94;1599549;88;21604;-78
2022/09/01 01:59:18;;;;;;;1.22;0.90;;;;;;;13.58;62.01;99538.08;1629743;88;21548;-78
2022/09/01 02:01:50;;;;;;;1.90;0.80;;;;;;;13.50;62.21;99540.22;1629943;88;21568;-78
2022/09/01 02:04:19;;;;;;;10.50;1.32;;;;;;;13.43;62.45;99541.44;1629686;88;21155;-78
2022/09/01 02:06:46;;;;;;;1.77;0.90;;;;;;;13.35;62.68;99545.30;1629585;88;21102;-78
2022/09/01 02:09:17;;;;;;;4.65;1.40;;;;;;;13.29;63.09;99544.69;1629788;88;21183;-78
2022/09/01 02:11:44;;;;;;;6.40;1.10;;;;;;;13.23;63.58;99537.91;1631788;87;21050;-78
2022/09/01 02:14:12;;;;;;;2.65;1.00;;;;;;;13.14;63.83;99535.66;1632296;87;21042;-78
2022/09/01 02:16:40;;;;;;;3.75;1.05;;;;;;;13.10;64.13;99534.10;1632607;87;21095;-78
2022/09/01 02:19:08;;;;;;;2.58;1.40;;;;;;;13.07;64.21;99536.87;1632403;87;21015;-78
2022/09/01 02:21:35;;;;;;;1.05;0.98;;;;;;;13.03;64.19;99527.35;1632582;87;21125;-78
2022/09/01 02:24:04;;;;;;;1.00;0.90;;;;;;;12.95;64.38;99532.52;1632318;87;21031;-78
2022/09/01 02:26:37;;;;;;;3.60;1.30;;;;;;;12.88;64.57;99535.05;1632383;87;21529;-78
2022/09/01 02:29:07;;;;;;;3.50;1.40;;;;;;;12.81;64.90;99534.92;1632491;87;21142;-78
2022/09/01 02:31:39;;;;;;;1.85;1.55;;;;;;;12.77;65.32;99539.92;1632355;87;21070;-77
2022/09/01 02:34:09;;;;;;;3.20;2.17;;;;;;;12.74;65.37;99544.89;1632339;87;21553;-77
2022/09/01 02:36:41;;;;;;;3.33;2.22;;;;;;;12.67;65.38;99535.97;1632212;87;21094;-78
2022/09/01 02:39:05;;;;;;;2.83;2.33;;;;;;;12.58;65.71;99538.08;1632387;87;21716;-77
2022/09/01 02:41:33;;;;;;;5.05;2.40;;;;;;;12.52;66.21;99538.33;1632401;87;21675;-78
2022/09/01 02:44:01;;;;;;;2.85;2.55;;;;;;;12.44;66.39;99540.45;1632606;87;21612;-78
2022/09/01 02:46:29;;;;;;;10.20;2.75;;;;;;;12.40;66.68;99541.48;1632440;87;21240;-78
2022/09/01 02:48:56;;;;;;;9.00;3.87;;;;;;;12.37;66.92;99544.25;1632216;87;21616;-78
2022/09/01 02:51:26;;;;;;;10.15;4.58;;;;;;;12.31;67.40;99542.73;1632428;87;22127;-78
2022/09/01 02:53:52;;;;;;;6.17;4.35;;;;;;;12.29;68.34;99541.06;1632334;87;21105;-78
2022/09/01 02:56:21;;;;;;;8.00;4.10;;;;;;;12.31;68.12;99541.89;1632213;87;21094;-78
2022/09/01 02:58:49;;;;;;;10.48;3.58;;;;;;;12.26;68.24;99541.59;1632406;87;21240;-78
2022/09/01 03:01:27;;;;;;;6.50;4.40;;;;;;;12.22;68.19;99549.25;1632484;87;21102;-78
2022/09/01 03:03:59;;;;;;;9.55;6.10;;;;;;;12.16;68.31;99542.91;1632574;87;21099;-78
2022/09/01 03:06:27;;;;;;;9.95;5.17;;;;;;;12.15;68.87;99550.41;1632319;87;21047;-77
2022/09/01 03:08:58;;;;;;;7.70;5.17;;;;;;;12.16;69.28;99549.49;1632190;87;21042;-76
2022/09/01 03:11:24;;;;;;;9.83;5.35;;;;;;;12.13;69.26;99546.98;1630872;87;21222;-78
2022/09/01 03:13:52;;;;;;;9.43;5.42;;;;;;;12.12;69.37;99555.83;1629542;88;21083;-77
2022/09/01 03:16:21;;;;;;;8.00;5.20;;;;;;;12.10;69.45;99558.96;1629524;88;21402;-78
2022/09/01 03:18:49;;;;;;;8.70;5.10;;;;;;;12.10;69.58;99565.55;1629896;88;21134;-77
2022/09/01 03:21:17;;;;;;;9.23;5.60;;;;;;;12.09;69.32;99573.09;1629810;88;21566;-76
2022/09/01 03:23:44;;;;;;;9.48;5.78;;;;;;;12.05;69.01;99566.20;1630054;88;21672;-78
2022/09/01 03:26:13;;;;;;;11.15;9.05;;;;;;;11.99;69.12;99566.47;1629623;87;21569;-77
2022/09/01 03:28:40;;;;;;;11.25;8.23;;;;;;;11.95;69.59;99568.81;1629767;88;21035;-78
2022/09/01 03:31:07;;;;;;;8.53;5.80;;;;;;;11.97;69.86;99569.59;1629698;87;21106;-76
2022/09/01 03:33:35;;;;;;;13.48;6.53;;;;;;;12.02;70.06;99580.82;1629844;88;21079;-78
2022/09/01 03:36:03;;;;;;;10.18;6.90;;;;;;;12.02;69.95;99572.91;1630018;88;21767;-77
2022/09/01 03:38:32;;;;;;;9.83;6.35;;;;;;;12.04;70.67;99574.58;1629738;88;21031;-77
2022/09/01 03:41:01;;;;;;;11.35;6.55;;;;;;;12.06;71.10;99571.89;1629693;87;21075;-77
2022/09/01 03:43:31;;;;;;;9.38;5.50;;;;;;;12.10;70.95;99573.47;1629728;88;21584;-78
2022/09/01 03:46:01;;;;;;;27.10;6.42;;;;;;;12.14;71.37;99575.08;1629552;87;21066;-78
2022/09/01 03:48:30;;;;;;;10.38;5.12;;;;;;;12.18;72.07;99576.66;1629717;88;21625;-77
2022/09/01 03:51:01;;;;;;;13.85;5.03;;;;;;;12.19;72.59;99574.44;1599380;88;21243;-78
2022/09/01 03:53:29;;;;;;;10.08;4.97;;;;;;;12.23;72.82;99578.65;1629998;88;21122;-78
2022/09/01 03:55:57;;;;;;;10.60;4.80;;;;;;;12.25;73.03;99578.16;1629768;88;21585;-79
2022/09/01 03:58:24;;;;;;;16.37;5.03;;;;;;;12.28;73.48;99576.30;1629815;87;21614;-77
2022/09/01 04:00:55;;;;;;;16.37;5.50;;;;;;;12.29;73.69;99579.32;1629572;88;21230;-78
2022/09/01 04:03:25;;;;;;;11.70;4.90;;;;;;;12.30;73.86;99575.77;1629936;88;21087;-78
2022/09/01 04:05:52;;;;;;;9.18;4.60;;;;;;;12.32;73.81;99578.73;1629542;87;21522;-77
2022/09/01 04:08:21;;;;;;;10.25;4.97;;;;;;;12.37;74.04;99586.47;1629740;87;21593;-78
2022/09/01 04:10:51;;;;;;;10.65;5.30;;;;;;;12.38;74.19;99585.56;1629994;87;21157;-78
2022/09/01 04:13:31;;;;;;;11.50;5.28;;;;;;;12.41;74.16;99581.48;1632285;87;21499;-77
2022/09/01 04:15:58;;;;;;;20.08;6.03;;;;;;;12.46;74.00;99586.11;1611729;87;21086;-78
2022/09/01 04:18:25;;;;;;;13.38;5.37;;;;;;;12.49;74.05;99588.63;1632297;87;21138;-78
2022/09/01 04:20:55;;;;;;;13.48;5.95;;;;;;;12.55;73.86;99599.38;1632164;87;21102;-79
2022/09/01 04:23:32;;;;;;;11.90;6.08;;;;;;;12.61;73.86;99601.30;1632323;87;21090;-78
2022/09/01 04:26:08;;;;;;;9.05;6.05;;;;;;;12.69;73.76;99596.16;1633348;87;21612;-77
2022/09/01 04:28:44;;;;;;;12.18;5.37;;;;;;;12.77;73.50;99598.02;1630734;87;20955;-79
2022/09/01 04:31:16;;;;;;;9.68;6.03;;;;;;;12.83;73.24;99601.25;1632404;87;21098;-77
2022/09/01 04:33:45;;;;;;;9.25;6.08;;;;;;;12.90;72.89;99593.92;1632294;87;21141;-77
2022/09/01 04:36:18;;;;;;;13.10;5.83;;;;;;;12.96;72.89;99598.95;1609412;87;21216;-78
2022/09/01 04:38:53;;;;;;;10.63;5.92;;;;;;;13.04;72.84;99603.89;1632323;87;21774;-78
2022/09/01 04:41:21;;;;;;;21.07;6.45;;;;;;;13.12;72.26;99607.05;1632184;87;21027;-78
2022/09/01 04:43:50;;;;;;;10.18;6.25;;;;;;;13.23;72.02;99610.56;1632267;87;21051;-77
2022/09/01 04:46:19;;;;;;;12.05;5.87;;;;;;;13.32;71.93;99615.94;1632194;87;21070;-79
2022/09/01 04:48:46;;;;;;;22.98;7.50;;;;;;;13.40;71.82;99608.53;1632401;87;21091;-77
2022/09/01 04:51:14;;;;;;;16.70;6.60;;;;;;;13.49;71.82;99605.45;1632152;87;21118;-78
2022/09/01 04:53:51;;;;;;;9.28;6.20;;;;;;;13.58;71.28;99604.64;1632518;87;21086;-78
2022/09/01 04:56:21;;;;;;;14.13;6.40;;;;;;;13.68;71.09;99609.91;1632408;87;21098;-78
2022/09/01 04:58:50;;;;;;;9.18;5.85;;;;;;;13.77;70.66;99604.65;1630736;87;21083;-78
2022/09/01 05:01:20;;;;;;;15.43;6.33;;;;;;;13.86;70.42;99606.88;1632294;87;21141;-79
2022/09/01 05:04:00;;;;;;;9.78;5.62;;;;;;;13.95;70.42;99602.47;1632468;87;21244;-78
2022/09/01 05:06:18;;;;;;;12.73;5.42;;;;;;;14.05;70.41;99602.42;1629746;87;21043;-77
2022/09/01 05:08:50;;;;;;;10.75;5.45;;;;;;;14.15;70.32;99600.20;1632136;87;21043;-78
2022/09/01 05:11:30;;;;;;;13.25;5.70;;;;;;;14.25;69.53;99604.59;1578813;90;21548;-78
2022/09/01 05:13:59;;;;;;;9.55;5.17;;;;;;;14.34;68.89;99601.95;1632353;87;21138;-78
2022/09/01 05:16:26;;;;;;;11.05;5.58;;;;;;;14.42;69.44;99600.64;1632410;87;21206;-78
2022/09/01 05:18:56;;;;;;;11.38;6.35;;;;;;;14.56;69.61;99593.81;1632402;87;21101;-79
2022/09/01 05:21:25;;;;;;;9.65;4.80;;;;;;;14.65;69.66;99594.72;1632121;87;21138;-79
2022/09/01 05:23:53;;;;;;;12.75;5.35;;;;;;;14.78;69.35;99592.32;1632157;87;21157;-77
2022/09/01 05:26:30;;;;;;;8.20;4.55;;;;;;;14.89;68.99;99589.95;1632274;87;21161;-79
2022/09/01 05:29:00;;;;;;;10.53;5.00;;;;;;;14.98;68.45;99595.28;1632297;87;21279;-78
2022/09/01 05:31:32;;;;;;;7.25;4.87;;;;;;;15.07;68.23;99596.59;1632419;87;21421;-79
2022/09/01 05:33:57;;;;;;;7.90;4.85;;;;;;;15.15;67.41;99595.25;1632090;87;21091;-78
2022/09/01 05:36:23;;;;;;;7.10;4.85;;;;;;;15.22;67.27;99595.30;1632398;87;21071;-78
2022/09/01 05:38:52;;;;;;;12.15;4.55;;;;;;;15.31;67.29;99592.62;1632408;87;21086;-78
2022/09/01 05:41:19;;;;;;;6.83;4.50;;;;;;;15.40;66.81;99587.33;1609400;87;21174;-78
2022/09/01 05:43:48;;;;;;;9.53;4.37;;;;;;;15.49;66.53;99597.91;1632157;87;21064;-78
2022/09/01 05:46:22;;;;;;;10.70;3.50;;;;;;;15.54;66.59;99594.06;1632186;87;21047;-79
2022/09/01 05:48:51;;;;;;;7.90;3.75;;;;;;;15.60;66.55;99593.73;1632153;87;21028;-78
2022/09/01 05:51:21;;;;;;;10.13;3.65;;;;;;;15.69;65.85;99588.40;1632285;87;21074;-78
2022/09/01 05:53:53;;;;;;;8.15;4.15;;;;;;;15.81;64.83;99592.20;1632384;87;21200;-79
2022/09/01 05:56:22;;;;;;;4.75;3.17;;;;;;;15.93;64.59;99593.33;1632248;87;21158;-78
2022/09/01 05:58:49;;;;;;;7.60;3.45;;;;;;;16.01;64.35;99588.93;1632524;87;21668;-79
2022/09/01 06:01:21;;;;;;;25.23;4.37;;;;;;;16.09;63.97;99585.38;1632172;87;21125;-78
2022/09/01 06:03:53;;;;;;;13.58;4.00;;;;;;;16.12;63.25;99583.85;1609081;87;21173;-77
2022/09/01 06:06:26;;;;;;;8.25;4.12;;;;;;;16.20;63.46;99583.43;1632566;87;21162;-78
2022/09/01 06:08:57;;;;;;;8.78;3.67;;;;;;;16.30;62.74;99574.84;1632111;87;21051;-78
2022/09/01 06:11:23;;;;;;;23.85;3.65;;;;;;;16.41;61.95;99580.00;1632315;87;21104;-78
2022/09/01 06:13:54;;;;;;;7.78;2.50;;;;;;;16.47;60.83;99579.66;1633446;87;21039;-78
2022/09/01 06:16:20;;;;;;;5.33;2.47;;;;;;;16.54;59.57;99578.34;1632275;87;21023;-78
2022/09/01 06:18:51;;;;;;;3.72;2.17;;;;;;;16.61;58.54;99586.81;1632567;87;21106;-78
2022/09/01 06:21:17;;;;;;;3.87;2.27;;;;;;;16.68;57.83;99588.19;1632268;87;21023;-78
2022/09/01 06:23:44;;;;;;;4.12;1.90;;;;;;;16.70;55.71;99580.50;1632638;87;21027;-79
2022/09/01 06:26:19;;;;;;;5.37;1.98;;;;;;;16.72;55.18;99585.23;1632131;87;21015;-78
2022/09/01 06:28:46;;;;;;;2.08;1.85;;;;;;;16.76;53.79;99575.31;1631839;87;21672;-78
2022/09/01 06:31:14;;;;;;;2.98;1.55;;;;;;;16.83;53.48;99585.95;1632146;87;23034;-77
2022/09/01 06:33:42;;;;;;;5.72;1.82;;;;;;;16.92;53.03;99582.40;1632223;87;21121;-80
2022/09/01 06:36:10;;;;;;;8.80;2.52;;;;;;;17.01;50.75;99587.14;1632197;87;21221;-79
2022/09/01 06:38:37;;;;;;;9.33;2.70;;;;;;;17.08;50.20;99584.04;1632330;87;21161;-79
2022/09/01 06:41:11;;;;;;;9.88;3.20;;;;;;;17.18;48.93;99583.02;1632567;87;21670;-78
2022/09/01 06:43:34;;;;;;;10.48;2.72;;;;;;;17.26;47.87;99585.19;1632182;87;21559;-79
2022/09/01 06:46:01;;;;;;;8.50;3.00;;;;;;;17.29;47.74;99585.48;1632776;87;21169;-79
2022/09/01 06:48:29;;;;;;;4.53;2.80;;;;;;;17.35;48.08;99585.09;1632446;87;21121;-79
2022/09/01 06:51:02;;;;;;;8.75;2.30;;;;;;;17.43;47.81;99585.02;1632432;87;21078;-79
2022/09/01 06:53:30;;;;;;;9.65;2.20;;;;;;;17.59;47.31;99582.73;1632309;87;21203;-79
2022/09/01 06:55:57;;;;;;;10.72;3.40;;;;;;;17.73;46.87;99588.02;1632367;87;21090;-79
2022/09/01 06:58:24;;;;;;;7.67;3.55;;;;;;;17.86;46.88;99589.44;1632097;87;21071;-79
2022/09/01 07:00:51;;;;;;;6.67;3.35;;;;;;;17.99;46.72;99589.06;1632232;87;21153;-78
2022/09/01 07:03:19;;;;;;;5.72;2.92;;;;;;;18.14;46.79;99588.56;1632523;87;21138;-78
2022/09/01 07:05:57;;;;;;;11.22;3.95;;;;;;;18.30;46.68;99583.56;1632079;87;21555;-79
2022/09/01 07:08:27;;;;;;;10.63;3.83;;;;;;;18.49;45.57;99589.84;1632632;86;21124;-78
2022/09/01 07:11:05;;;;;;;5.22;3.25;;;;;;;18.60;45.70;99580.67;1631462;87;21130;-79
2022/09/01 07:13:30;;;;;;;4.92;2.98;;;;;;;18.71;45.31;99590.59;1632356;87;21142;-79
2022/09/01 07:15:58;;;;;;;9.90;3.50;;;;;;;18.79;45.05;99592.27;1632314;87;21085;-79
2022/09/01 07:18:26;;;;;;;10.93;3.40;;;;;;;18.85;44.62;99595.90;1632361;87;21149;-79
2022/09/01 07:20:53;;;;;;;6.70;4.00;;;;;;;18.88;43.40;99594.36;1632542;87;21173;-79
2022/09/01 07:23:22;;;;;;;8.75;4.20;;;;;;;18.85;43.54;99601.23;1632213;87;21241;-79
2022/09/01 07:25:53;;;;;;;13.32;4.70;;;;;;;18.89;44.11;99600.54;1632447;87;21648;-80
2022/09/01 07:28:24;;;;;;;7.97;4.25;;;;;;;18.94;43.82;99595.25;1631298;87;21619;-79
2022/09/01 07:30:56;;;;;;;9.13;4.40;;;;;;;19.00;43.21;99595.34;1632485;87;21668;-79
2022/09/01 07:33:22;;;;;;;7.97;3.77;;;;;;;19.09;43.06;99589.84;1631870;87;21267;-78
2022/09/01 07:35:54;;;;;;;11.22;3.25;;;;;;;19.19;42.69;99593.58;1632087;87;21006;-79
2022/09/01 07:38:22;;;;;;;8.20;3.62;;;;;;;19.24;41.48;99597.27;1632233;87;21043;-79
2022/09/01 07:40:51;;;;;;;7.45;3.50;;;;;;;19.21;40.73;99602.33;1632555;87;21135;-78
2022/09/01 07:43:30;;;;;;;10.93;3.60;;;;;;;19.14;41.14;99606.88;1632345;87;21082;-78
2022/09/01 07:46:04;;;;;;;8.75;2.87;;;;;;;19.09;41.77;99604.52;1631433;87;21177;-79
2022/09/01 07:48:32;;;;;;;11.38;3.62;;;;;;;19.05;40.82;99606.55;1632089;87;21051;-78
2022/09/01 07:50:59;;;;;;;17.92;4.08;;;;;;;19.02;41.33;99596.57;1632409;87;21504;-79
2022/09/01 07:53:30;;;;;;;8.60;5.15;;;;;;;19.09;41.70;99601.84;1632207;87;21583;-79
2022/09/01 07:56:00;;;;;;;11.78;5.67;;;;;;;19.20;41.90;99597.97;1632292;87;22141;-77
2022/09/01 07:58:28;;;;;;;8.98;4.97;;;;;;;19.27;41.74;99595.73;1609516;87;21219;-79
2022/09/01 08:00:58;;;;;;;13.10;6.17;;;;;;;19.29;41.19;99595.98;1632200;87;21608;-77
2022/09/01 08:03:26;;;;;;;12.73;5.60;;;;;;;19.26;41.48;99593.52;1632414;87;21079;-78
2022/09/01 08:05:56;;;;;;;13.22;5.70;;;;;;;19.23;42.05;99592.43;1633466;87;21094;-78
2022/09/01 08:08:22;;;;;;;13.80;8.80;;;;;;;19.24;40.54;99598.12;1632331;87;21067;-78
2022/09/01 08:10:49;;;;;;;17.55;9.23;;;;;;;19.09;41.23;99596.52;1632342;87;21127;-78
2022/09/01 08:13:18;;;;;;;20.65;9.33;;;;;;;18.94;41.71;99597.92;1630660;87;21605;-78
2022/09/01 08:15:45;;;;;;;11.73;6.83;;;;;;;18.88;41.57;99596.19;1629586;87;21023;-78
2022/09/01 08:18:12;;;;;;;8.93;5.25;;;;;;;18.84;41.07;99591.51;1629820;88;21075;-79
2022/09/01 08:20:44;;;;;;;11.85;6.90;;;;;;;18.85;41.19;99590.56;1629692;87;21039;-78
2022/09/01 08:23:15;;;;;;;16.40;5.53;;;;;;;18.96;41.21;99591.64;1629449;87;21151;-77
2022/09/01 08:25:43;;;;;;;19.00;7.67;;;;;;;19.09;40.09;99593.36;1629906;88;22278;-78
2022/09/01 08:28:10;;;;;;;23.18;9.63;;;;;;;19.20;39.73;99588.64;1629630;88;21101;-78
2022/09/01 08:30:39;;;;;;;15.65;8.30;;;;;;;19.25;40.26;99590.50;1629682;87;21101;-79
2022/09/01 08:33:07;;;;;;;14.15;8.20;;;;;;;19.20;40.18;99589.97;1629578;88;21169;-78
2022/09/01 08:35:34;;;;;;;17.98;9.60;;;;;;;19.22;40.64;99589.86;1629758;87;21133;-78
2022/09/01 08:38:00;;;;;;;19.05;8.65;;;;;;;19.37;40.88;99589.28;1629607;87;21453;-78
2022/09/01 08:40:29;;;;;;;17.50;9.15;;;;;;;19.53;40.49;99591.70;1599671;88;21154;-79
2022/09/01 08:43:19;;;;;;;21.00;12.00;;;;;;;19.65;39.76;99585.03;1629614;87;21154;-78
2022/09/01 08:45:54;;;;;;;28.02;12.18;;;;;;;19.74;39.21;99581.33;1629649;87;21615;-78
2022/09/01 08:48:40;;;;;;;26.80;12.45;;;;;;;19.88;39.64;99580.37;1629999;88;21785;-79
2022/09/01 08:51:24;;;;;;;24.87;13.38;;;;;;;19.98;39.73;99577.39;1629655;88;21028;-77
2022/09/01 08:54:38;;;;;;;15.30;8.70;;;;;;;20.08;38.86;99569.57;1629773;87;21166;-78
2022/09/01 08:57:09;;;;;;;22.13;8.50;;;;;;;20.13;38.61;99578.09;1629520;88;21099;-78
2022/09/01 08:59:52;;;;;;;23.70;11.97;;;;;;;20.19;37.94;99573.62;1572049;90;21118;-78
2022/09/01 09:02:50;;;;;;;27.45;13.60;;;;;;;20.19;37.85;99572.28;1606833;88;21158;-79
2022/09/01 09:05:59;;;;;;;39.30;19.95;;;;;;;20.19;38.07;99570.95;1625320;87;21023;-79
2022/09/01 09:08:50;;;;;;;51.10;28.57;;;;;;;20.21;38.26;99570.38;1629550;88;21157;-78
2022/09/01 09:11:27;;;;;;;56.00;33.08;;;;;;;20.33;39.20;99565.45;1602056;89;21039;-77
2022/09/01 09:14:02;;;;;;;54.35;30.92;;;;;;;20.49;38.02;99567.81;1611795;87;21153;-80
2022/09/01 09:16:39;;;;;;;60.33;35.52;;;;;;;20.49;37.33;99570.98;1634177;87;21166;-80
2022/09/01 09:19:21;;;;;;;77.70;41.30;;;;;;;20.41;38.26;99568.41;1635745;87;21121;-78
2022/09/01 09:21:50;;;;;;;79.40;44.60;;;;;;;20.54;38.04;99564.34;1666581;84;21098;-78
2022/09/01 09:24:27;;;;;;;76.07;40.55;;;;;;;20.78;37.77;99572.34;1667198;86;21548;-78
2022/09/01 09:26:57;;;;;;;74.42;41.00;;;;;;;20.97;37.45;99569.59;1666777;84;21078;-79
2022/09/01 09:29:26;;;;;;;83.75;44.93;;;;;;;21.06;37.35;99566.19;1665927;85;21077;-76
2022/09/01 09:32:07;;;;;;;75.05;40.73;;;;;;;21.11;37.30;99571.19;1666724;84;21042;-78
2022/09/01 09:34:39;;;;;;;72.20;39.85;;;;;;;21.09;37.12;99565.95;1666639;86;21089;-78
2022/09/01 09:37:29;;;;;;;54.83;32.30;;;;;;;20.96;37.56;99565.20;1667178;86;22425;-79
2022/09/01 09:40:13;;;;;;;69.82;38.40;;;;;;;20.87;37.26;99569.94;1666871;86;21027;-78
2022/09/01 09:43:00;;;;;;;71.90;40.17;;;;;;;20.71;37.13;99568.44;1665054;85;21081;-79
2022/09/01 09:45:38;;;;;;;68.28;38.23;;;;;;;20.54;37.75;99568.81;1666881;84;21822;-78
2022/09/01 09:48:28;;;;;;;58.83;32.50;;;;;;;20.48;37.95;99561.27;1667044;85;21094;-78
2022/09/01 09:50:54;;;;;;;46.63;27.10;;;;;;;20.39;38.62;99558.31;1666887;86;21153;-79
2022/09/01 09:53:28;;;;;;;34.33;19.90;;;;;;;20.37;38.81;99560.23;1665936;86;21108;-80
2022/09/01 09:56:09;;;;;;;17.02;9.55;;;;;;;20.39;38.60;99566.34;1666751;86;23258;-78
2022/09/01 09:58:41;;;;;;;12.25;6.53;;;;;;;20.36;37.87;99555.88;1666951;86;21015;-77
2022/09/01 10:01:22;;;;;;;14.20;6.70;;;;;;;20.34;38.07;99556.94;1649685;86;21082;-79
2022/09/01 10:03:53;;;;;;;5.95;4.40;;;;;;;20.37;37.85;99560.23;1640012;86;22300;-79
2022/09/01 10:06:43;;;;;;;9.58;3.90;;;;;;;20.41;37.71;99556.38;1642353;86;21060;-78
2022/09/01 10:09:23;;;;;;;1.87;1.70;;;;;;;20.51;37.73;99557.88;1642011;86;22931;-79
2022/09/01 10:11:56;;;;;;;8.73;1.10;;;;;;;20.67;37.32;99564.27;1641026;85;21040;-79
2022/09/01 10:14:41;;;;;;;10.78;1.65;;;;;;;20.74;37.30;99561.98;1642315;85;21085;-80
2022/09/01 10:17:13;;;;;;;3.02;0.65;;;;;;;20.93;37.11;99561.42;1605182;89;21042;-80
2022/09/01 10:19:49;;;;;;;6.08;0.90;;;;;;;21.10;36.50;99560.98;1604872;88;21105;-78
2022/09/01 10:22:15;;;;;;;3.60;0.85;;;;;;;21.17;35.98;99555.16;1624780;88;21181;-80
2022/09/01 10:24:42;;;;;;;4.25;0.42;;;;;;;21.11;35.11;99560.00;1605410;88;21424;-79
2022/09/01 10:27:24;;;;;;;2.95;0.80;;;;;;;21.01;34.63;99556.33;1635015;86;21051;-80
2022/09/01 10:30:02;;;;;;;5.92;1.02;;;;;;;20.96;34.99;99554.50;1605445;88;22149;-77
2022/09/01 10:32:35;;;;;;;2.40;0.70;;;;;;;21.02;34.43;99563.40;1624481;88;21071;-78
2022/09/01 10:35:03;;;;;;;3.12;0.80;;;;;;;21.10;34.56;99558.31;1605186;88;22103;-78
2022/09/01 10:37:30;;;;;;;3.37;0.80;;;;;;;21.14;34.57;99561.09;1624562;87;21079;-78
2022/09/01 10:40:17;;;;;;;3.70;0.45;;;;;;;21.21;35.02;99561.97;1637020;87;21094;-79
2022/09/01 10:42:53;;;;;;;1.25;0.60;;;;;;;21.30;35.25;99545.17;1605457;88;21051;-78
2022/09/01 10:45:21;;;;;;;0.75;0.70;;;;;;;21.54;35.22;99546.94;1603283;88;21031;-77
2022/09/01 10:47:47;;;;;;;1.32;0.57;;;;;;;21.75;34.37;99538.49;1605630;87;21126;-78
2022/09/01 10:50:28;;;;;;;0.50;0.50;;;;;;;21.91;34.39;99535.94;1635074;86;21644;-79
2022/09/01 10:53:00;;;;;;;1.45;0.53;;;;;;;22.03;32.10;99540.28;1628077;86;21411;-78
2022/09/01 10:55:46;;;;;;;1.77;0.50;;;;;;;21.99;32.25;99542.36;1605719;88;22026;-78
2022/09/01 10:58:34;;;;;;;5.65;0.62;;;;;;;21.89;32.47;99539.58;1605118;88;21081;-78
2022/09/01 11:01:01;;;;;;;1.20;0.50;;;;;;;21.86;32.95;99537.14;1611748;87;21210;-76
2022/09/01 11:03:38;;;;;;;3.65;1.20;;;;;;;21.85;33.00;99526.05;1605236;88;21093;-78
2022/09/01 11:06:07;;;;;;;6.35;1.35;;;;;;;21.86;33.59;99543.00;1603975;88;21149;-79
2022/09/01 11:08:41;;;;;;;5.78;1.42;;;;;;;21.78;33.72;99537.41;1605716;88;21113;-78
2022/09/01 11:11:29;;;;;;;5.80;1.32;;;;;;;21.70;34.00;99536.67;1604917;89;21089;-78
2022/09/01 11:13:57;;;;;;;2.35;1.10;;;;;;;21.70;34.24;99534.00;1623357;86;21691;-79
2022/09/01 11:16:35;;;;;;;2.60;1.02;;;;;;;21.75;33.91;99535.81;1647791;86;21039;-79
2022/09/01 11:19:26;;;;;;;10.18;2.50;;;;;;;21.75;33.46;99537.16;1649627;86;21043;-78
2022/09/01 11:22:22;;;;;;;5.60;1.72;;;;;;;21.77;33.82;99532.55;1618161;86;21132;-79
2022/09/01 11:25:12;;;;;;;4.28;2.22;;;;;;;21.93;34.24;99525.94;1640686;86;21120;-78
2022/09/01 11:27:54;;;;;;;7.33;3.20;;;;;;;22.14;33.06;99514.80;1640948;86;21181;-78
2022/09/01 11:30:51;;;;;;;7.10;4.12;;;;;;;22.38;32.59;99515.09;1642154;86;21195;-77
2022/09/01 11:34:00;;;;;;;6.35;4.17;;;;;;;22.61;32.10;99522.05;1651352;85;21034;-77
2022/09/01 11:36:48;;;;;;;8.83;1.52;;;;;;;22.70;30.45;99520.91;1641403;86;21086;-78
2022/09/01 11:39:29;;;;;;;9.20;3.67;;;;;;;22.61;30.31;99521.18;1652924;86;22021;-76
2022/09/01 11:42:04;;;;;;;8.60;5.42;;;;;;;22.56;30.71;99524.27;1649172;86;21258;-79
2022/09/01 11:45:06;;;;;;;11.12;5.20;;;;;;;22.60;30.25;99524.36;1650085;86;21106;-79
2022/09/01 11:47:40;;;;;;;13.03;6.50;;;;;;;22.68;30.13;99524.19;1641543;86;21570;-78
2022/09/01 11:50:31;;;;;;;12.58;6.33;;;;;;;22.67;30.34;99518.48;1642144;86;21053;-80
2022/09/01 11:53:07;;;;;;;12.58;6.65;;;;;;;22.55;30.26;99519.88;1642251;86;21176;-81
2022/09/01 11:55:43;;;;;;;14.47;7.67;;;;;;;22.42;31.16;99525.91;1642358;85;21136;-79